Time;durP1;ratioP1;P1;durP2;ratioP2;P2;SDS_P1;SDS_P2;PMS_P1;PMS_P2;Temp;Humidity;BMP_temperature;BMP_pressure;BME280_temperature;BME280_humidity;BME280_pressure;Samples;Min_cycle;Max_cycle;Signal;HPM_P1;HPM_P2
2022/03/10 00:00:08;;;;;;;46.28;25.60;;;8.60;61.80;;;;;;5068000;28;20198;-69
2022/03/10 00:02:39;;;;;;;48.55;24.95;;;8.60;61.90;;;;;;5068898;28;20537;-70
2022/03/10 00:05:05;;;;;;;47.83;25.23;;;8.60;62.20;;;;;;5049468;28;20210;-69
2022/03/10 00:07:30;;;;;;;50.20;25.45;;;8.60;62.40;;;;;;5071304;28;20179;-70
2022/03/10 00:09:56;;;;;;;49.92;26.00;;;8.50;62.50;;;;;;5074944;28;20236;-70
2022/03/10 00:12:22;;;;;;;45.78;24.50;;;8.50;62.60;;;;;;5054823;28;20200;-70
2022/03/10 00:14:47;;;;;;;49.30;25.40;;;8.50;62.60;;;;;;5076822;28;20193;-70
2022/03/10 00:17:13;;;;;;;47.63;24.13;;;8.40;62.70;;;;;;5067825;28;20190;-69
2022/03/10 00:19:38;;;;;;;47.08;24.25;;;8.40;62.80;;;;;;5050633;28;21033;-68
2022/03/10 00:22:05;;;;;;;45.05;24.13;;;8.40;63.00;;;;;;5067527;28;20179;-69
2022/03/10 00:24:31;;;;;;;45.67;23.48;;;8.40;63.00;;;;;;5033095;28;20936;-69
2022/03/10 00:26:56;;;;;;;47.75;24.63;;;8.40;63.00;;;;;;5048195;28;20221;-70
2022/03/10 00:29:22;;;;;;;52.35;24.02;;;8.40;62.90;;;;;;5068940;28;20209;-70
2022/03/10 00:31:48;;;;;;;48.25;24.58;;;8.40;62.80;;;;;;5052992;28;20231;-70
2022/03/10 00:34:13;;;;;;;45.60;23.42;;;8.40;62.80;;;;;;5048205;28;20232;-72
2022/03/10 00:36:39;;;;;;;42.40;23.38;;;8.40;62.80;;;;;;5046598;28;20815;-72
2022/03/10 00:39:05;;;;;;;39.78;22.15;;;8.40;62.70;;;;;;5048352;28;20211;-71
2022/03/10 00:41:31;;;;;;;41.05;21.90;;;8.40;62.50;;;;;;5046681;28;20183;-71
2022/03/10 00:43:56;;;;;;;45.85;23.15;;;8.40;62.50;;;;;;5052902;28;20190;-72
2022/03/10 00:46:22;;;;;;;40.28;23.25;;;8.40;62.40;;;;;;5049131;28;20184;-72
2022/03/10 00:48:48;;;;;;;43.80;23.45;;;8.40;62.20;;;;;;5048789;28;20205;-72
2022/03/10 00:51:13;;;;;;;56.67;23.27;;;8.30;62.00;;;;;;5053851;28;22982;-71
2022/03/10 00:53:39;;;;;;;41.53;22.75;;;8.30;61.90;;;;;;5046686;28;20256;-71
2022/03/10 00:56:05;;;;;;;41.63;22.15;;;8.30;61.90;;;;;;5046815;28;20183;-71
2022/03/10 00:58:30;;;;;;;45.60;23.40;;;8.30;61.70;;;;;;5056290;28;21837;-71
2022/03/10 01:00:56;;;;;;;42.63;23.13;;;8.30;61.60;;;;;;5047789;28;20191;-71
2022/03/10 01:03:23;;;;;;;42.70;22.80;;;8.20;61.50;;;;;;5049780;28;20211;-72
2022/03/10 01:05:49;;;;;;;41.22;21.85;;;8.20;61.50;;;;;;5048740;28;20198;-72
2022/03/10 01:08:15;;;;;;;42.58;22.30;;;8.20;61.50;;;;;;5053037;28;20187;-70
2022/03/10 01:10:40;;;;;;;46.90;23.08;;;8.20;61.40;;;;;;5055527;28;20723;-68
2022/03/10 01:13:14;;;;;;;44.10;23.20;;;8.20;61.50;;;;;;5045542;28;20273;-68
2022/03/10 01:15:41;;;;;;;42.72;22.73;;;8.10;61.60;;;;;;5047124;28;20286;-69
2022/03/10 01:18:07;;;;;;;45.30;22.80;;;8.10;61.60;;;;;;5047170;28;20187;-69
2022/03/10 01:20:33;;;;;;;40.83;22.73;;;8.10;61.80;;;;;;5048914;28;20191;-71
2022/03/10 01:44:38;;;;;;;47.88;22.55;;;7.80;62.20;;;;;;5071036;28;1193387;-69
2022/03/10 01:47:05;;;;;;;43.13;23.55;;;7.80;62.20;;;;;;5122531;27;20223;-69
2022/03/10 01:49:32;;;;;;;42.15;22.38;;;7.70;62.10;;;;;;5125827;27;20188;-69
2022/03/10 01:51:59;;;;;;;43.25;22.20;;;7.70;62.20;;;;;;5123021;28;20649;-68
2022/03/10 01:54:24;;;;;;;41.35;22.05;;;7.70;62.40;;;;;;5126800;27;20242;-70
2022/03/10 01:56:51;;;;;;;43.50;23.08;;;7.70;63.10;;;;;;5123959;27;20566;-70
2022/03/10 01:59:18;;;;;;;42.78;23.63;;;7.70;62.70;;;;;;5125859;28;20366;-70
2022/03/10 02:01:44;;;;;;;43.88;22.88;;;7.60;62.80;;;;;;5125545;27;20663;-69
2022/03/10 02:04:10;;;;;;;44.28;23.05;;;7.70;63.00;;;;;;5126720;27;20259;-70
2022/03/10 02:06:36;;;;;;;43.75;22.73;;;7.60;63.00;;;;;;5120807;28;20180;-70
2022/03/10 02:11:51;;;;;;;44.28;22.92;;;7.60;63.20;;;;;;5122396;27;20176;-70
2022/03/10 02:19:46;;;;;;;43.13;22.92;;;7.50;63.30;;;;;;5124774;28;20204;-69
2022/03/10 02:22:13;;;;;;;40.35;22.38;;;7.50;63.40;;;;;;5123270;28;20260;-70
2022/03/10 02:24:42;;;;;;;45.80;23.52;;;7.50;63.40;;;;;;5122275;28;20181;-70
2022/03/10 02:27:16;;;;;;;42.40;22.73;;;7.50;63.50;;;;;;5121976;27;20287;-70
2022/03/10 02:29:45;;;;;;;43.83;23.02;;;7.50;63.50;;;;;;5125978;27;20184;-69
2022/03/10 02:32:12;;;;;;;43.47;21.95;;;7.40;63.70;;;;;;5124208;28;20188;-67
2022/03/10 02:34:38;;;;;;;42.60;23.30;;;7.40;63.90;;;;;;5125237;27;20212;-67
2022/03/10 02:37:04;;;;;;;40.20;22.35;;;7.40;64.10;;;;;;5121070;28;20192;-68
2022/03/10 02:39:30;;;;;;;42.72;22.77;;;7.40;64.30;;;;;;5123538;27;20880;-68
2022/03/10 02:41:56;;;;;;;44.63;22.80;;;7.30;64.90;;;;;;5123363;27;20268;-68
2022/03/10 02:44:22;;;;;;;43.85;23.23;;;7.30;64.70;;;;;;5124649;27;20297;-68
2022/03/10 02:46:47;;;;;;;43.05;21.90;;;7.30;65.00;;;;;;5123915;27;20226;-68
2022/03/10 02:49:13;;;;;;;46.90;22.90;;;7.20;65.10;;;;;;5125513;28;20643;-68
2022/03/10 02:51:39;;;;;;;46.63;23.52;;;7.20;65.20;;;;;;5112386;28;20212;-68
2022/03/10 02:54:04;;;;;;;45.85;23.30;;;7.10;65.40;;;;;;5109654;28;20195;-68
2022/03/10 02:56:30;;;;;;;42.88;23.17;;;7.10;65.50;;;;;;5109377;28;20271;-68
2022/03/10 02:58:56;;;;;;;49.35;24.73;;;7.10;65.70;;;;;;5109992;28;20185;-68
2022/03/10 03:01:21;;;;;;;41.10;22.48;;;7.10;66.00;;;;;;5109088;28;20192;-68
2022/03/10 03:03:47;;;;;;;43.35;22.45;;;7.10;66.20;;;;;;5111762;28;20196;-68
2022/03/10 03:06:12;;;;;;;42.72;23.95;;;7.00;66.30;;;;;;5110086;28;20279;-68
2022/03/10 03:08:38;;;;;;;45.28;23.10;;;7.00;66.60;;;;;;5110795;28;20543;-68
2022/03/10 03:11:04;;;;;;;45.83;23.60;;;7.00;66.90;;;;;;5108780;28;20250;-69
2022/03/10 03:13:29;;;;;;;47.40;24.75;;;7.00;67.20;;;;;;5111422;28;20597;-69
2022/03/10 03:15:55;;;;;;;45.47;23.65;;;6.90;67.30;;;;;;5107009;28;20185;-69
2022/03/10 03:18:20;;;;;;;44.75;23.15;;;6.90;67.50;;;;;;5108775;27;20264;-70
2022/03/10 03:20:46;;;;;;;42.75;23.45;;;6.90;67.50;;;;;;5110484;28;20200;-70
2022/03/10 03:23:12;;;;;;;45.72;24.50;;;6.90;67.70;;;;;;5110042;28;20177;-70
2022/03/10 03:25:37;;;;;;;48.67;24.25;;;6.90;67.80;;;;;;5126927;27;20197;-70
2022/03/10 03:28:03;;;;;;;43.65;24.20;;;6.90;68.10;;;;;;5109548;28;20254;-70
2022/03/10 03:30:28;;;;;;;43.63;24.40;;;6.90;68.20;;;;;;5110238;28;20178;-70
2022/03/10 03:32:54;;;;;;;43.92;24.02;;;6.90;68.30;;;;;;5109692;28;20185;-70
2022/03/10 03:35:20;;;;;;;42.95;23.83;;;6.90;68.60;;;;;;5111392;28;20676;-69
2022/03/10 03:37:45;;;;;;;48.15;24.90;;;6.80;68.70;;;;;;5107528;28;20189;-69
2022/03/10 03:40:11;;;;;;;47.65;24.25;;;6.80;69.10;;;;;;5120705;27;20213;-68
2022/03/10 03:42:37;;;;;;;46.60;24.33;;;6.80;69.20;;;;;;5104925;28;20264;-69
2022/03/10 03:45:04;;;;;;;42.60;24.08;;;6.80;69.40;;;;;;5108059;28;20194;-69
2022/03/10 03:47:30;;;;;;;48.72;24.67;;;6.80;69.60;;;;;;5109573;28;20185;-68
2022/03/10 03:49:56;;;;;;;47.17;24.35;;;6.70;69.70;;;;;;5107913;28;20188;-68
2022/03/10 03:52:22;;;;;;;49.38;25.25;;;6.70;69.80;;;;;;5109170;28;20264;-68
2022/03/10 03:54:47;;;;;;;44.55;24.48;;;6.70;70.10;;;;;;5109864;28;20200;-68
2022/03/10 03:57:13;;;;;;;42.97;24.02;;;6.70;70.30;;;;;;5108627;27;20268;-68
2022/03/10 03:59:38;;;;;;;49.05;24.10;;;6.70;70.30;;;;;;5108463;28;20205;-69
2022/03/10 04:02:04;;;;;;;47.00;25.02;;;6.60;70.50;;;;;;5110729;28;20181;-70
2022/03/10 04:04:30;;;;;;;45.13;23.85;;;6.60;70.70;;;;;;5106844;28;20188;-70
2022/03/10 04:06:56;;;;;;;49.83;24.95;;;6.60;70.90;;;;;;5110231;28;20276;-70
2022/03/10 04:09:22;;;;;;;43.42;24.50;;;6.60;71.10;;;;;;5107858;28;20188;-70
2022/03/10 04:11:49;;;;;;;44.97;24.98;;;6.50;71.30;;;;;;5109780;28;20680;-69
2022/03/10 04:14:14;;;;;;;50.17;25.40;;;6.50;71.50;;;;;;5107989;28;20180;-69
2022/03/10 04:16:40;;;;;;;46.88;24.98;;;6.50;71.70;;;;;;5110273;28;20719;-67
2022/03/10 04:19:06;;;;;;;51.58;25.60;;;6.50;71.90;;;;;;5107965;28;20660;-69
2022/03/10 04:21:32;;;;;;;44.33;24.83;;;6.40;72.10;;;;;;5110278;28;20181;-69
2022/03/10 04:23:58;;;;;;;43.15;24.08;;;6.40;72.30;;;;;;5104197;28;20520;-67
2022/03/10 04:26:23;;;;;;;45.15;24.15;;;6.40;72.50;;;;;;5107572;28;20184;-68
2022/03/10 04:28:49;;;;;;;49.67;24.95;;;6.40;72.60;;;;;;5103955;28;20181;-68
2022/03/10 04:31:15;;;;;;;43.58;24.95;;;6.30;72.70;;;;;;5106731;28;20212;-68
2022/03/10 04:33:40;;;;;;;49.80;25.50;;;6.30;72.80;;;;;;5106316;28;20306;-68
2022/03/10 04:36:07;;;;;;;46.47;24.35;;;6.30;73.00;;;;;;5104589;28;20196;-68
2022/03/10 04:38:32;;;;;;;45.15;24.90;;;6.20;73.10;;;;;;5107458;28;20204;-71
2022/03/10 04:40:58;;;;;;;47.85;25.35;;;6.20;73.40;;;;;;5106469;28;20192;-71
2022/03/10 04:43:24;;;;;;;44.17;25.42;;;6.20;73.60;;;;;;5104866;28;20225;-70
2022/03/10 04:45:49;;;;;;;48.50;24.40;;;6.20;73.80;;;;;;5108871;28;20177;-69
2022/03/10 04:48:15;;;;;;;45.58;24.88;;;6.20;73.90;;;;;;5104524;28;20258;-69
2022/03/10 04:50:40;;;;;;;45.60;25.33;;;6.20;74.00;;;;;;5109129;28;20749;-70
2022/03/10 04:53:06;;;;;;;51.92;24.55;;;6.10;74.10;;;;;;5106196;28;20221;-72
2022/03/10 04:55:32;;;;;;;45.72;24.73;;;6.10;74.20;;;;;;5108222;28;20653;-71
2022/03/10 04:57:58;;;;;;;47.80;24.40;;;6.10;74.40;;;;;;5107051;28;20220;-73
2022/03/10 05:00:23;;;;;;;52.65;26.13;;;6.10;74.50;;;;;;5107255;28;20712;-71
2022/03/10 05:02:49;;;;;;;48.90;24.90;;;6.10;74.60;;;;;;5105478;28;20686;-72
2022/03/10 05:05:17;;;;;;;46.05;25.33;;;6.00;75.40;;;;;;5106066;28;20273;-71
2022/03/10 05:07:44;;;;;;;49.65;25.02;;;6.00;74.80;;;;;;5106133;28;20187;-73
2022/03/10 05:10:11;;;;;;;53.42;25.42;;;6.00;75.00;;;;;;5105144;28;20193;-69
2022/03/10 05:12:48;;;;;;;49.03;25.00;;;6.00;75.10;;;;;;5106605;28;20192;-71
2022/03/10 05:15:18;;;;;;;46.78;24.85;;;6.00;75.30;;;;;;5104794;28;20197;-69
2022/03/10 05:17:43;;;;;;;46.80;24.67;;;5.90;75.30;;;;;;5104531;28;20708;-71
2022/03/10 05:20:09;;;;;;;46.78;25.30;;;5.90;75.30;;;;;;5106613;28;20304;-71
2022/03/10 05:22:50;;;;;;;46.15;24.35;;;5.90;75.50;;;;;;5106423;28;20177;-71
2022/03/10 05:25:17;;;;;;;48.25;25.55;;;5.90;76.40;;;;;;5106640;28;20190;-72
2022/03/10 05:27:44;;;;;;;43.80;24.83;;;5.90;75.80;;;;;;5107005;28;20220;-73
2022/03/10 05:30:10;;;;;;;49.42;25.17;;;5.90;75.90;;;;;;5104515;28;20193;-73
2022/03/10 05:32:36;;;;;;;51.00;25.95;;;5.80;76.10;;;;;;5104584;28;20536;-72
2022/03/10 05:35:03;;;;;;;46.95;25.08;;;5.80;76.20;;;;;;5105215;28;20192;-72
2022/03/10 05:37:29;;;;;;;48.22;25.83;;;5.80;76.40;;;;;;5106450;28;20852;-71
2022/03/10 05:39:55;;;;;;;52.03;25.98;;;5.80;76.60;;;;;;5107762;28;20588;-71
2022/03/10 05:42:21;;;;;;;46.78;25.42;;;5.70;76.80;;;;;;5106277;28;20189;-71
2022/03/10 05:44:47;;;;;;;45.97;26.25;;;5.70;76.90;;;;;;5107681;28;20232;-72
2022/03/10 05:47:13;;;;;;;41.83;24.33;;;5.70;77.10;;;;;;5105096;28;20181;-75
2022/03/10 05:49:38;;;;;;;48.92;25.95;;;5.70;77.40;;;;;;5107853;28;20268;-75
2022/03/10 05:52:05;;;;;;;48.10;25.38;;;5.70;77.50;;;;;;5104633;28;20222;-75
2022/03/10 05:54:31;;;;;;;48.88;25.65;;;5.60;77.60;;;;;;5106570;28;20196;-71
2022/03/10 05:56:57;;;;;;;51.55;26.67;;;5.60;77.80;;;;;;5106650;28;20189;-70
2022/03/10 05:59:22;;;;;;;50.13;26.75;;;5.60;78.00;;;;;;5104468;28;20213;-71
2022/03/10 06:01:49;;;;;;;51.30;26.02;;;5.60;78.10;;;;;;5105687;28;20189;-68
2022/03/10 06:04:18;;;;;;;53.78;26.77;;;5.60;78.50;;;;;;5105821;28;20189;-69
2022/03/10 06:06:43;;;;;;;54.55;25.42;;;5.60;78.50;;;;;;5105010;28;20196;-69
2022/03/10 06:09:09;;;;;;;45.30;26.23;;;5.50;78.60;;;;;;5106586;28;20177;-69
2022/03/10 06:11:35;;;;;;;46.67;26.17;;;5.50;78.70;;;;;;5104766;28;20262;-69
2022/03/10 06:14:01;;;;;;;50.00;26.33;;;5.50;78.80;;;;;;5108061;28;20214;-69
2022/03/10 06:16:27;;;;;;;48.40;26.23;;;5.50;78.90;;;;;;5106588;28;20557;-69
2022/03/10 06:18:53;;;;;;;51.97;26.25;;;5.40;79.00;;;;;;5106467;28;20190;-70
2022/03/10 06:21:18;;;;;;;54.00;25.20;;;5.40;79.10;;;;;;5105529;28;20209;-69
2022/03/10 06:23:44;;;;;;;46.63;25.92;;;5.40;79.30;;;;;;5123888;28;20212;-70
2022/03/10 06:26:09;;;;;;;46.28;25.95;;;5.40;79.50;;;;;;5106267;28;20613;-69
2022/03/10 06:28:35;;;;;;;46.67;26.33;;;5.40;79.60;;;;;;5110306;28;20303;-69
2022/03/10 06:31:01;;;;;;;45.78;25.88;;;5.40;79.80;;;;;;5107604;28;20181;-69
2022/03/10 06:33:26;;;;;;;52.58;26.83;;;5.40;79.90;;;;;;5110785;28;20189;-68
2022/03/10 06:35:52;;;;;;;50.42;26.65;;;5.40;79.90;;;;;;5107632;28;20649;-71
2022/03/10 06:38:18;;;;;;;52.15;26.20;;;5.40;79.90;;;;;;5110111;28;20230;-67
2022/03/10 06:40:46;;;;;;;48.63;25.90;;;5.40;80.10;;;;;;5107457;28;20208;-69
2022/03/10 06:43:12;;;;;;;49.05;25.13;;;5.40;80.20;;;;;;5109556;28;20616;-69
2022/03/10 06:45:37;;;;;;;47.90;25.38;;;5.40;80.30;;;;;;5109980;28;20272;-68
2022/03/10 06:48:03;;;;;;;51.67;26.63;;;5.40;80.50;;;;;;5111083;28;20261;-69
2022/03/10 06:50:29;;;;;;;48.03;26.63;;;5.40;80.70;;;;;;5109623;28;20189;-70
2022/03/10 06:52:56;;;;;;;52.97;25.83;;;5.40;80.70;;;;;;5108299;28;20217;-70
2022/03/10 06:55:23;;;;;;;54.67;26.30;;;5.40;80.80;;;;;;5107068;28;20239;-70
2022/03/10 06:57:50;;;;;;;49.97;26.08;;;5.40;81.00;;;;;;5106201;27;20556;-70
2022/03/10 07:00:15;;;;;;;53.00;25.77;;;5.40;81.00;;;;;;5107874;28;20450;-67
2022/03/10 07:02:41;;;;;;;44.53;25.23;;;5.50;81.10;;;;;;5108740;28;20625;-69
2022/03/10 07:05:08;;;;;;;49.88;26.25;;;5.50;81.20;;;;;;5109458;28;20285;-71
2022/03/10 07:07:34;;;;;;;49.20;26.10;;;5.50;81.20;;;;;;5109644;28;20177;-70
2022/03/10 07:10:00;;;;;;;45.78;25.77;;;5.50;81.30;;;;;;5109668;28;20280;-70
2022/03/10 07:12:29;;;;;;;48.83;25.92;;;5.50;81.30;;;;;;5110371;28;20258;-70
2022/03/10 07:14:55;;;;;;;48.65;26.15;;;5.50;81.40;;;;;;5108630;28;20188;-70
2022/03/10 07:17:20;;;;;;;55.90;27.63;;;5.60;81.40;;;;;;5108730;28;20181;-70
2022/03/10 07:19:46;;;;;;;44.78;25.05;;;5.60;81.50;;;;;;5108447;28;20207;-70
2022/03/10 07:22:19;;;;;;;48.38;26.65;;;5.70;81.70;;;;;;5106175;28;20425;-68
2022/03/10 07:24:45;;;;;;;51.50;25.95;;;5.70;81.60;;;;;;5109006;28;20722;-68
2022/03/10 07:27:11;;;;;;;48.83;26.95;;;5.70;81.60;;;;;;5107046;28;20174;-68
2022/03/10 07:29:37;;;;;;;49.65;25.58;;;5.70;81.70;;;;;;5107209;28;20192;-69
2022/03/10 07:32:03;;;;;;;48.80;25.67;;;5.80;81.80;;;;;;5109697;28;20184;-69
2022/03/10 07:34:29;;;;;;;45.80;26.02;;;5.80;82.00;;;;;;5109286;28;20776;-68
2022/03/10 07:36:55;;;;;;;51.00;26.42;;;5.90;82.10;;;;;;5109213;28;20181;-68
2022/03/10 07:39:21;;;;;;;45.42;24.70;;;5.90;81.90;;;;;;5111106;28;20307;-67
2022/03/10 07:41:46;;;;;;;48.42;26.02;;;6.00;82.10;;;;;;5107385;28;20181;-68
2022/03/10 07:44:12;;;;;;;47.75;23.63;;;6.00;82.10;;;;;;5110169;27;20213;-68
2022/03/10 07:46:37;;;;;;;48.05;25.27;;;6.00;82.20;;;;;;5109438;28;20183;-68
2022/03/10 07:49:04;;;;;;;47.92;24.63;;;6.10;82.30;;;;;;5111281;28;20189;-67
2022/03/10 07:51:30;;;;;;;45.95;25.80;;;6.20;82.50;;;;;;5109428;28;20214;-67
2022/03/10 07:53:56;;;;;;;46.55;25.75;;;6.20;82.50;;;;;;5109002;28;20626;-67
2022/03/10 07:56:21;;;;;;;45.75;24.80;;;6.30;82.60;;;;;;5108862;28;20196;-67
2022/03/10 07:58:47;;;;;;;51.38;25.77;;;6.30;82.40;;;;;;5109615;28;20713;-68
2022/03/10 08:01:13;;;;;;;46.50;25.40;;;6.40;82.30;;;;;;5107813;28;20374;-67
2022/03/10 08:03:39;;;;;;;45.03;24.92;;;6.40;82.30;;;;;;5109819;28;20212;-67
2022/03/10 08:06:06;;;;;;;50.78;26.25;;;6.50;82.20;;;;;;5108655;28;20553;-66
2022/03/10 08:08:31;;;;;;;49.17;24.88;;;6.60;82.20;;;;;;5110766;28;20188;-67
2022/03/10 08:10:57;;;;;;;50.13;25.98;;;6.70;82.90;;;;;;5107229;28;20657;-67
2022/03/10 08:13:26;;;;;;;49.42;26.30;;;6.70;82.10;;;;;;5109417;28;20240;-66
2022/03/10 08:15:53;;;;;;;46.83;25.27;;;6.80;82.10;;;;;;5108384;28;20185;-68
2022/03/10 08:18:20;;;;;;;45.28;25.33;;;6.90;82.20;;;;;;5110161;27;20192;-68
2022/03/10 08:20:46;;;;;;;48.35;26.30;;;7.00;82.00;;;;;;5108526;28;20213;-67
2022/03/10 08:23:12;;;;;;;52.08;26.17;;;7.10;82.10;;;;;;5108124;28;20226;-68
2022/03/10 08:25:38;;;;;;;;;;;7.20;82.20;;;;;;5107787;28;20103;-67
2022/03/10 08:28:04;;;;;;;;;;;7.30;82.10;;;;;;5106673;28;19911;-66
2022/03/10 08:30:30;;;;;;;;;;;7.40;82.20;;;;;;5109234;28;19915;-69
2022/03/10 08:32:55;;;;;;;44.33;27.75;;;7.50;82.30;;;;;;5108766;28;20539;-69
2022/03/10 08:35:21;;;;;;;48.72;26.98;;;8.30;82.10;;;;;;5107998;28;20201;-69
2022/03/10 08:37:47;;;;;;;;;;;8.70;82.80;;;;;;5110678;28;20024;-69
2022/03/10 08:40:15;;;;;;;;;;;9.30;83.60;;;;;;5107301;28;20007;-69
2022/03/10 08:42:42;;;;;;;;;;;10.10;84.40;;;;;;5110035;28;19907;-69
2022/03/10 08:45:08;;;;;;;42.30;26.10;;;11.00;84.00;;;;;;5107096;28;20541;-69
2022/03/10 08:47:34;;;;;;;40.63;26.15;;;12.10;82.60;;;;;;5108434;28;20480;-69
2022/03/10 08:50:00;;;;;;;42.95;27.35;;;14.90;57.30;;;;;;5106391;28;20404;-68
2022/03/10 08:52:25;;;;;;;42.03;26.67;;;17.00;50.50;;;;;;5107706;28;20396;-68
2022/03/10 08:54:51;;;;;;;38.13;25.83;;;19.00;44.20;;;;;;5106224;28;21092;-69
2022/03/10 08:57:16;;;;;;;40.77;26.13;;;20.30;40.50;;;;;;5108137;28;20439;-68
2022/03/10 08:59:42;;;;;;;36.57;25.40;;;21.50;37.30;;;;;;5103427;28;20420;-66
2022/03/10 09:02:08;;;;;;;37.38;24.80;;;22.60;35.60;;;;;;5104583;28;20430;-67
2022/03/10 09:04:33;;;;;;;39.22;24.77;;;23.50;33.40;;;;;;5106191;28;20396;-68
2022/03/10 09:07:01;;;;;;;37.28;24.75;;;24.40;31.40;;;;;;5106361;28;20432;-67
2022/03/10 09:09:26;;;;;;;32.78;23.73;;;25.20;29.80;;;;;;5107161;28;20266;-68
2022/03/10 09:11:52;;;;;;;37.15;24.27;;;24.20;33.20;;;;;;5109678;28;20708;-68
2022/03/10 09:14:18;;;;;;;39.85;23.20;;;23.60;35.20;;;;;;5107383;28;20193;-66
2022/03/10 09:16:44;;;;;;;37.03;23.13;;;23.40;36.10;;;;;;5109313;28;20241;-69
2022/03/10 09:19:09;;;;;;;33.08;22.40;;;23.30;36.40;;;;;;5108556;28;20189;-68
2022/03/10 09:21:35;;;;;;;33.45;22.63;;;23.40;36.90;;;;;;5109442;28;20185;-65
2022/03/10 09:24:00;;;;;;;32.05;22.23;;;23.60;36.80;;;;;;5106014;28;20181;-67
2022/03/10 09:26:26;;;;;;;33.67;23.08;;;23.90;36.30;;;;;;5105407;28;20177;-69
2022/03/10 09:28:52;;;;;;;38.60;23.65;;;24.10;35.80;;;;;;5107480;28;20177;-68
2022/03/10 09:31:18;;;;;;;31.35;22.15;;;24.20;35.30;;;;;;5106909;28;20184;-66
2022/03/10 09:33:45;;;;;;;31.98;22.63;;;24.30;35.50;;;;;;5105307;28;20185;-68
2022/03/10 09:36:11;;;;;;;32.00;22.02;;;24.50;35.20;;;;;;5108849;28;20211;-68
2022/03/10 09:38:37;;;;;;;33.50;23.05;;;24.80;34.70;;;;;;5107526;28;20179;-68
2022/03/10 09:41:03;;;;;;;38.25;23.35;;;25.00;34.30;;;;;;5107885;28;20208;-68
2022/03/10 09:43:30;;;;;;;53.10;23.30;;;25.40;33.90;;;;;;5105581;28;20737;-67
2022/03/10 09:45:55;;;;;;;36.30;22.30;;;25.60;34.30;;;;;;5107820;28;20241;-67
2022/03/10 09:48:21;;;;;;;35.45;24.10;;;25.80;33.10;;;;;;5107540;28;20180;-68
2022/03/10 09:50:49;;;;;;;32.20;22.20;;;26.00;32.50;;;;;;5108600;28;20663;-68
2022/03/10 09:53:15;;;;;;;32.78;22.05;;;26.10;32.10;;;;;;5105209;28;20248;-67
2022/03/10 09:55:41;;;;;;;32.58;23.10;;;26.20;31.90;;;;;;5107966;28;20195;-67
2022/03/10 09:58:08;;;;;;;34.38;22.13;;;26.30;31.60;;;;;;5107588;28;20267;-67
2022/03/10 10:00:34;;;;;;;31.83;23.00;;;26.30;31.50;;;;;;5109319;28;20547;-67
2022/03/10 10:03:00;;;;;;;37.33;22.60;;;26.30;30.90;;;;;;5109641;28;20187;-68
2022/03/10 10:05:31;;;;;;;38.10;23.02;;;26.30;31.10;;;;;;5112952;28;20580;-68
2022/03/10 10:08:04;;;;;;;32.45;22.60;;;26.30;30.90;;;;;;5111077;28;20567;-69
2022/03/10 10:10:31;;;;;;;36.67;22.95;;;26.20;30.60;;;;;;5109299;28;20245;-68
2022/03/10 10:12:57;;;;;;;34.50;23.88;;;26.10;30.50;;;;;;5110107;28;20916;-68
2022/03/10 10:15:23;;;;;;;38.65;23.52;;;27.70;27.70;;;;;;5111310;28;20412;-69
2022/03/10 10:17:59;;;;;;;35.17;23.60;;;28.10;28.00;;;;;;5108907;28;20438;-68
2022/03/10 10:20:43;;;;;;;36.17;25.20;;;28.00;27.50;;;;;;5109096;28;20506;-66
2022/03/10 10:23:23;;;;;;;36.50;23.95;;;27.70;27.80;;;;;;5108111;28;20396;-67
2022/03/10 10:25:56;;;;;;;35.73;23.53;;;27.00;29.10;;;;;;5111490;28;20388;-68
2022/03/10 10:28:28;;;;;;;37.88;24.88;;;26.20;29.60;;;;;;5107826;28;20411;-67
2022/03/10 10:31:07;;;;;;;35.47;24.60;;;25.40;30.50;;;;;;5110650;28;20427;-66
2022/03/10 10:33:34;;;;;;;34.85;24.00;;;24.70;32.40;;;;;;5109286;28;20416;-68
2022/03/10 10:36:24;;;;;;;35.28;24.33;;;24.10;34.00;;;;;;5111215;28;20439;-68
2022/03/10 10:38:51;;;;;;;;;;;23.60;34.50;;;;;;5109994;28;20503;-70
2022/03/10 10:41:27;;;;;;;34.42;23.05;;;23.00;35.10;;;;;;5112610;28;20274;-68
2022/03/10 10:44:02;;;;;;;35.47;24.45;;;22.50;36.00;;;;;;5108202;28;20488;-68
2022/03/10 10:46:29;;;;;;;39.03;24.63;;;22.60;37.00;;;;;;5109465;28;20484;-69
2022/03/10 10:48:58;;;;;;;34.63;24.55;;;22.60;35.60;;;;;;5107859;28;20971;-69
2022/03/10 10:51:33;;;;;;;37.47;24.77;;;22.80;36.40;;;;;;5107910;28;20411;-68
2022/03/10 10:54:00;;;;;;;36.67;24.77;;;22.90;35.90;;;;;;5125040;27;20411;-68
2022/03/10 10:56:30;;;;;;;36.53;24.70;;;23.10;35.90;;;;;;5106119;28;20761;-68
2022/03/10 10:58:56;;;;;;;38.90;24.17;;;23.10;35.50;;;;;;5110317;27;20427;-67
2022/03/10 11:01:35;;;;;;;32.53;23.13;;;23.10;35.50;;;;;;5109135;28;20420;-68
2022/03/10 11:04:03;;;;;;;32.50;22.67;;;23.20;35.90;;;;;;5108826;28;21226;-68
2022/03/10 11:06:29;;;;;;;37.75;23.85;;;23.60;35.00;;;;;;5107239;28;20426;-67
2022/03/10 11:08:55;;;;;;;33.07;23.13;;;23.70;34.30;;;;;;5108708;28;20412;-67
2022/03/10 11:11:21;;;;;;;34.33;23.88;;;23.80;35.30;;;;;;5109113;28;20419;-70
2022/03/10 11:13:48;;;;;;;30.15;22.30;;;23.90;35.50;;;;;;5109128;28;20900;-68
2022/03/10 11:16:16;;;;;;;40.95;23.50;;;24.00;34.20;;;;;;5109757;28;20790;-67
2022/03/10 11:18:46;;;;;;;36.83;23.30;;;24.00;34.10;;;;;;5110358;28;20424;-68
2022/03/10 11:21:26;;;;;;;32.63;22.80;;;23.60;35.60;;;;;;5107435;28;20507;-68
2022/03/10 11:23:56;;;;;;;36.53;23.80;;;23.20;34.70;;;;;;5110468;28;20437;-66
2022/03/10 11:26:34;;;;;;;34.53;23.02;;;22.80;36.40;;;;;;5106681;28;20428;-68
2022/03/10 11:29:00;;;;;;;35.58;22.92;;;22.60;37.80;;;;;;5108869;28;20396;-67
2022/03/10 11:31:28;;;;;;;37.92;23.55;;;22.40;37.60;;;;;;5107123;28;20502;-68
2022/03/10 11:33:54;;;;;;;35.45;22.40;;;22.20;37.60;;;;;;5108934;28;20472;-66
2022/03/10 11:36:30;;;;;;;32.97;23.50;;;22.10;38.80;;;;;;5108149;28;20412;-67
2022/03/10 11:38:59;;;;;;;33.90;22.88;;;22.00;38.40;;;;;;5108753;28;20469;-67
2022/03/10 11:41:45;;;;;;;35.95;22.33;;;21.90;37.90;;;;;;5108291;28;20892;-68
2022/03/10 11:44:12;;;;;;;31.85;22.20;;;21.80;38.00;;;;;;5108448;28;20423;-67
2022/03/10 11:46:57;;;;;;;35.08;21.63;;;21.70;37.90;;;;;;5109684;28;20242;-67
2022/03/10 11:49:26;;;;;;;35.75;21.05;;;21.30;38.70;;;;;;5107446;28;20264;-67
2022/03/10 11:51:56;;;;;;;35.05;21.48;;;21.20;39.20;;;;;;5110555;28;20181;-68
2022/03/10 11:54:32;;;;;;;30.70;20.42;;;21.00;39.40;;;;;;5107028;28;20186;-68
2022/03/10 11:57:08;;;;;;;35.10;20.40;;;20.90;39.20;;;;;;5108978;28;20645;-65
2022/03/10 11:59:43;;;;;;;33.63;21.10;;;20.60;39.30;;;;;;5109070;28;20248;-67
2022/03/10 12:02:29;;;;;;;35.83;21.25;;;20.60;39.30;;;;;;5108986;28;20184;-66
2022/03/10 12:04:58;;;;;;;36.28;20.67;;;20.40;39.80;;;;;;5108083;27;20185;-68
2022/03/10 12:07:29;;;;;;;37.10;20.88;;;20.30;40.40;;;;;;5110903;28;20185;-69
2022/03/10 12:10:06;;;;;;;35.88;21.08;;;20.30;40.30;;;;;;5109109;28;20185;-69
2022/03/10 12:12:40;;;;;;;34.72;23.20;;;20.30;45.00;;;;;;5108383;28;20496;-69
2022/03/10 12:15:25;;;;;;;35.13;21.43;;;20.20;53.20;;;;;;5105699;28;20434;-68
2022/03/10 12:17:53;;;;;;;32.63;20.90;;;19.90;51.10;;;;;;5108059;28;20892;-69
2022/03/10 12:20:23;;;;;;;34.08;21.75;;;19.50;49.50;;;;;;5107697;28;20410;-70
2022/03/10 12:23:09;;;;;;;35.05;19.83;;;19.30;49.80;;;;;;5108138;28;20725;-69
2022/03/10 12:26:07;;;;;;;34.55;19.88;;;19.10;45.80;;;;;;5103733;28;20440;-69
2022/03/10 12:28:35;;;;;;;31.02;18.90;;;19.00;47.40;;;;;;5108856;28;20408;-68
2022/03/10 12:31:07;;;;;;;33.33;19.20;;;18.90;44.10;;;;;;5103938;28;20942;-71
2022/03/10 12:33:33;;;;;;;32.20;19.20;;;18.90;43.50;;;;;;5107575;28;21077;-71
2022/03/10 12:36:00;;;;;;;28.60;19.48;;;18.90;45.10;;;;;;5105793;28;20484;-70
2022/03/10 12:38:46;;;;;;;31.02;19.45;;;18.90;43.50;;;;;;5108872;28;20404;-68
2022/03/10 12:41:14;;;;;;;29.10;18.83;;;19.10;45.00;;;;;;5104886;28;20416;-70
2022/03/10 12:43:41;;;;;;;30.70;18.80;;;19.20;43.40;;;;;;5108442;28;20420;-69
2022/03/10 12:46:08;;;;;;;28.58;18.52;;;19.30;42.70;;;;;;5121847;27;20518;-69
2022/03/10 12:48:47;;;;;;;39.95;18.48;;;19.40;41.70;;;;;;5107456;28;20649;-69
2022/03/10 12:51:24;;;;;;;28.05;18.05;;;19.10;42.70;;;;;;5107242;28;20200;-69
2022/03/10 12:53:52;;;;;;;34.90;18.45;;;19.00;44.00;;;;;;5109570;28;20188;-69
2022/03/10 12:56:18;;;;;;;29.17;17.58;;;18.90;44.00;;;;;;5107327;28;20188;-70
2022/03/10 12:58:46;;;;;;;34.45;16.58;;;18.80;43.30;;;;;;5106816;28;20896;-68
2022/03/10 13:01:13;;;;;;;35.15;16.92;;;18.70;43.40;;;;;;5105527;28;20208;-67
2022/03/10 13:03:48;;;;;;;30.75;17.30;;;18.70;43.40;;;;;;5091256;28;20721;-68
2022/03/10 13:06:16;;;;;;;27.95;16.67;;;18.60;42.40;;;;;;5106824;28;20249;-70